createdAt,value
2022-11-29T00:01:39.973Z,99505.25
2022-11-29T00:04:07.019Z,99502.84
2022-11-29T00:06:34.857Z,99508.41
2022-11-29T00:09:03.624Z,99504.00
2022-11-29T00:11:32.599Z,99502.00
2022-11-29T00:13:59.372Z,99502.84
2022-11-29T00:16:26.266Z,99506.41
2022-11-29T00:18:53.063Z,99499.81
2022-11-29T00:21:19.917Z,99501.50
2022-11-29T00:23:47.739Z,99499.81
2022-11-29T00:26:14.514Z,99497.78
2022-11-29T00:28:41.345Z,99492.88
2022-11-29T00:31:15.169Z,99493.72
2022-11-29T00:33:42.197Z,99492.38
2022-11-29T00:36:09.352Z,99489.16
2022-11-29T00:38:36.258Z,99490.00
2022-11-29T00:41:03.062Z,99486.13
2022-11-29T00:43:29.850Z,99494.25
2022-11-29T00:45:56.704Z,99494.56
2022-11-29T00:48:23.620Z,99486.44
2022-11-29T00:50:50.437Z,99493.72
2022-11-29T00:53:17.314Z,99496.59
2022-11-29T00:55:44.556Z,99490.16
2022-11-29T00:58:11.376Z,99489.84
2022-11-29T01:00:38.162Z,99494.94
2022-11-29T01:03:04.982Z,99492.38
2022-11-29T01:05:32.149Z,99499.38
2022-11-29T01:07:59.029Z,99489.38
2022-11-29T01:10:26.252Z,99494.09
2022-11-29T01:12:53.052Z,99502.38
2022-11-29T01:15:19.851Z,99501.38
2022-11-29T01:17:46.642Z,99497.78
2022-11-29T01:20:13.698Z,99495.81
2022-11-29T01:22:40.507Z,99502.75
2022-11-29T01:25:07.834Z,99499.28
2022-11-29T01:27:35.001Z,99498.28
2022-11-29T01:30:01.815Z,99507.09
2022-11-29T01:32:28.778Z,99510.28
2022-11-29T01:34:55.605Z,99510.94
2022-11-29T01:37:22.460Z,99513.50
2022-11-29T01:39:49.233Z,99511.09
2022-11-29T01:42:16.170Z,99511.28
2022-11-29T01:44:46.268Z,99519.72
2022-11-29T01:47:13.394Z,99521.16
2022-11-29T01:49:44.048Z,99523.56
2022-11-29T01:52:10.808Z,99519.31
2022-11-29T01:54:40.792Z,99509.34
2022-11-29T01:57:08.523Z,99519.16
2022-11-29T01:59:36.973Z,99516.13
2022-11-29T02:02:12.092Z,99516.00
2022-11-29T02:04:41.445Z,99515.69
2022-11-29T02:07:08.538Z,99524.50
2022-11-29T02:09:35.352Z,99523.81
2022-11-29T02:12:11.164Z,99522.34
2022-11-29T02:14:44.536Z,99518.63
2022-11-29T02:17:29.404Z,99516.75
2022-11-29T02:20:05.393Z,99517.00
2022-11-29T02:22:43.823Z,99519.44
2022-11-29T02:25:19.932Z,99508.81
2022-11-29T02:27:49.694Z,99510.41
2022-11-29T02:30:19.495Z,99517.06
2022-11-29T02:32:52.487Z,99516.94
2022-11-29T02:35:19.266Z,99517.75
2022-11-29T02:37:46.031Z,99516.00
2022-11-29T02:40:12.804Z,99518.63
2022-11-29T02:42:56.245Z,99526.03
2022-11-29T02:45:41.502Z,99532.84
2022-11-29T02:48:14.474Z,99530.84
2022-11-29T02:51:01.511Z,99527.56
2022-11-29T02:53:37.287Z,99526.44
2022-11-29T02:56:23.585Z,99523.41
2022-11-29T02:58:53.383Z,99528.81
2022-11-29T03:01:29.228Z,99533.63
2022-11-29T03:04:01.814Z,99527.03
2022-11-29T03:06:39.180Z,99537.00
2022-11-29T03:09:15.877Z,99532.31
2022-11-29T03:11:53.655Z,99537.72
2022-11-29T03:14:44.078Z,99542.13
2022-11-29T03:17:10.968Z,99539.41
2022-11-29T03:19:37.724Z,99542.81
2022-11-29T03:22:11.851Z,99539.94
2022-11-29T03:24:45.108Z,99538.88
2022-11-29T03:27:14.439Z,99542.44
2022-11-29T03:29:47.204Z,99543.81
2022-11-29T03:32:43.368Z,99538.09
2022-11-29T03:35:14.483Z,99546.22
2022-11-29T03:37:50.270Z,99544.53
2022-11-29T03:40:19.646Z,99546.38
2022-11-29T03:43:01.658Z,99552.50
2022-11-29T03:45:47.305Z,99553.47
2022-11-29T03:48:20.651Z,99552.09
2022-11-29T03:50:56.195Z,99550.94
2022-11-29T03:53:30.736Z,99552.81
2022-11-29T03:56:16.103Z,99557.50
2022-11-29T03:59:04.637Z,99558.53
2022-11-29T04:01:46.746Z,99555.50
2022-11-29T04:04:16.395Z,99559.75
2022-11-29T04:06:58.579Z,99557.06
2022-11-29T04:09:57.854Z,99549.22
2022-11-29T04:12:43.383Z,99549.22
2022-11-29T04:15:16.060Z,99549.38
2022-11-29T04:18:04.821Z,99552.81
2022-11-29T04:20:50.140Z,99554.34
2022-11-29T04:23:35.577Z,99555.66
2022-11-29T04:26:11.375Z,99562.94
2022-11-29T04:28:57.041Z,99565.41
2022-11-29T04:31:32.793Z,99578.56
2022-11-29T04:34:20.479Z,99571.44
2022-11-29T04:36:53.369Z,99582.28
2022-11-29T04:39:23.238Z,99580.03
2022-11-29T04:41:53.035Z,99586.44
2022-11-29T04:44:41.090Z,99586.59
2022-11-29T04:47:07.857Z,99592.94
2022-11-29T04:49:53.412Z,99590.38
2022-11-29T04:52:20.217Z,99594.94
2022-11-29T04:55:10.034Z,99597.63
2022-11-29T04:57:46.071Z,99594.19
2022-11-29T05:00:18.331Z,99602.69
2022-11-29T05:02:54.679Z,99603.06
2022-11-29T05:05:21.441Z,99603.63
2022-11-29T05:07:56.868Z,99608.19
2022-11-29T05:10:32.830Z,99609.75
2022-11-29T05:13:07.046Z,99609.44
2022-11-29T05:15:48.941Z,99610.50
2022-11-29T05:18:15.746Z,99615.78
2022-11-29T05:20:51.554Z,99615.91
2022-11-29T05:23:24.561Z,99613.78
2022-11-29T05:25:57.039Z,99615.78
2022-11-29T05:28:32.971Z,99615.16
2022-11-29T05:31:18.631Z,99624.13
2022-11-29T05:33:54.804Z,99621.41
2022-11-29T05:36:35.016Z,99622.81
2022-11-29T05:39:04.704Z,99625.00
2022-11-29T05:41:31.472Z,99623.59
2022-11-29T05:44:04.072Z,99625.44
2022-11-29T05:46:35.280Z,99628.16
2022-11-29T05:49:20.606Z,99632.09
2022-11-29T05:52:05.927Z,99634.13
2022-11-29T05:54:51.657Z,99635.81
2022-11-29T05:57:30.314Z,99639.41
2022-11-29T05:59:58.626Z,99641.97
2022-11-29T06:02:31.338Z,99640.22
2022-11-29T06:05:20.326Z,99643.66
2022-11-29T06:08:16.545Z,99642.94
2022-11-29T06:11:12.997Z,99647.59
2022-11-29T06:13:49.517Z,99647.66
2022-11-29T06:16:31.789Z,99650.22
2022-11-29T06:19:17.361Z,99647.94
2022-11-29T06:21:51.237Z,99652.53
2022-11-29T06:24:23.356Z,99656.38
2022-11-29T06:26:52.422Z,99656.94
2022-11-29T06:29:23.869Z,99652.03
2022-11-29T06:32:14.051Z,99660.03
2022-11-29T06:34:56.531Z,99666.84
2022-11-29T06:37:27.476Z,99664.28
2022-11-29T06:39:54.766Z,99670.72
2022-11-29T06:42:21.595Z,99677.38
2022-11-29T06:44:48.552Z,99666.25
2022-11-29T06:47:35.785Z,99662.81
2022-11-29T06:50:22.815Z,99673.06
2022-11-29T06:53:12.889Z,99673.59
2022-11-29T06:55:45.324Z,99669.19
2022-11-29T06:58:15.022Z,99680.13
2022-11-29T07:00:52.546Z,99684.50
2022-11-29T07:03:31.410Z,99683.34
2022-11-29T07:05:58.666Z,99683.19
2022-11-29T07:08:25.630Z,99691.19
2022-11-29T07:10:53.351Z,99688.63
2022-11-29T07:13:20.569Z,99695.19
2022-11-29T07:16:02.408Z,99697.75
2022-11-29T07:18:29.187Z,99697.03
2022-11-29T07:20:55.960Z,99700.78
2022-11-29T07:23:29.034Z,99702.63
2022-11-29T07:26:25.337Z,99703.88
2022-11-29T07:29:01.202Z,99709.44
2022-11-29T07:31:39.930Z,99707.34
2022-11-29T07:34:09.857Z,99713.16
2022-11-29T07:36:39.625Z,99705.72
2022-11-29T07:39:12.417Z,99715.22
2022-11-29T07:41:57.135Z,99714.66
2022-11-29T07:44:30.089Z,99712.34
2022-11-29T07:46:56.898Z,99714.91
2022-11-29T07:49:23.698Z,99717.13
2022-11-29T07:51:50.641Z,99715.13
2022-11-29T07:54:18.562Z,99715.81
2022-11-29T07:56:45.556Z,99720.09
2022-11-29T07:59:12.473Z,99718.78
2022-11-29T08:01:39.784Z,99722.31
2022-11-29T08:04:07.335Z,99723.03
2022-11-29T08:06:34.740Z,99734.78
2022-11-29T08:09:01.965Z,99727.81
2022-11-29T08:11:28.778Z,99730.22
2022-11-29T08:13:59.362Z,99728.84
2022-11-29T08:16:26.216Z,99731.94
2022-11-29T08:18:53.038Z,99726.50
2022-11-29T08:21:19.831Z,99734.50
2022-11-29T08:23:49.301Z,99736.50
2022-11-29T08:26:16.853Z,99736.34
2022-11-29T08:28:43.650Z,99735.50
2022-11-29T08:31:11.639Z,99731.63
2022-11-29T08:33:39.734Z,99734.25
2022-11-29T08:36:07.941Z,99741.75
2022-11-29T08:38:35.384Z,99742.84
2022-11-29T08:41:06.775Z,99741.66
2022-11-29T08:43:34.277Z,99744.38
2022-11-29T08:46:01.131Z,99742.50
2022-11-29T08:48:27.959Z,99746.66
2022-11-29T08:50:55.454Z,99743.81
2022-11-29T08:53:22.842Z,99748.78
2022-11-29T08:55:49.701Z,99756.09
2022-11-29T08:58:16.467Z,99760.72
2022-11-29T09:00:44.012Z,99764.81
2022-11-29T09:03:10.877Z,99759.75
2022-11-29T09:05:37.673Z,99762.16
2022-11-29T09:08:04.595Z,99766.41
2022-11-29T09:10:31.350Z,99769.78
2022-11-29T09:12:58.155Z,99776.41
2022-11-29T09:15:24.953Z,99773.63
2022-11-29T09:17:51.802Z,99783.00
2022-11-29T09:20:18.598Z,99787.31
2022-11-29T09:22:45.380Z,99778.50
2022-11-29T09:25:12.193Z,99778.31
2022-11-29T09:27:39.005Z,99788.19
2022-11-29T09:30:06.112Z,99785.81
2022-11-29T09:32:33.931Z,99789.88
2022-11-29T09:35:00.891Z,99795.66
2022-11-29T09:37:27.697Z,99782.34
2022-11-29T09:39:54.467Z,99795.16
2022-11-29T09:42:21.212Z,99789.50
2022-11-29T09:44:48.309Z,99801.41
2022-11-29T09:47:33.717Z,99810.31
2022-11-29T09:50:00.471Z,99809.66
2022-11-29T09:52:45.695Z,99811.31
2022-11-29T09:55:23.269Z,99813.59
2022-11-29T09:57:51.189Z,99811.09
2022-11-29T10:00:28.128Z,99821.09
2022-11-29T10:03:16.530Z,99810.44
2022-11-29T10:05:45.130Z,99810.81
2022-11-29T10:08:16.733Z,99826.47
2022-11-29T10:10:45.743Z,99826.78
2022-11-29T10:13:33.213Z,99819.34
2022-11-29T10:16:06.151Z,99821.34
2022-11-29T10:18:37.643Z,99821.19
2022-11-29T10:21:25.214Z,99819.34
2022-11-29T10:23:57.517Z,99813.91
2022-11-29T10:26:24.291Z,99818.16
2022-11-29T10:28:51.355Z,99818.84
2022-11-29T10:31:18.156Z,99815.97
2022-11-29T10:33:45.674Z,99821.06
2022-11-29T10:36:17.088Z,99822.94
2022-11-29T10:38:44.674Z,99817.34
2022-11-29T10:41:14.158Z,99814.31
2022-11-29T10:43:40.966Z,99814.97
2022-11-29T10:46:13.202Z,99813.63
2022-11-29T10:48:40.125Z,99816.03
2022-11-29T10:51:14.980Z,99817.91
2022-11-29T10:53:41.837Z,99817.09
2022-11-29T10:56:16.501Z,99811.50
2022-11-29T10:59:01.672Z,99816.06
2022-11-29T11:01:29.564Z,99814.22
2022-11-29T11:03:57.771Z,99813.03
2022-11-29T11:06:26.561Z,99812.16
2022-11-29T11:08:58.091Z,99814.84
2022-11-29T11:11:28.864Z,99817.72
2022-11-29T11:14:00.274Z,99813.31
2022-11-29T11:16:27.186Z,99809.09
2022-11-29T11:18:54.134Z,99818.13
2022-11-29T11:21:23.102Z,99821.19
2022-11-29T11:23:52.901Z,99821.34
2022-11-29T11:26:19.782Z,99819.97
2022-11-29T11:28:46.545Z,99826.44
2022-11-29T11:31:13.728Z,99827.09
2022-11-29T11:33:41.970Z,99824.38
2022-11-29T11:36:21.361Z,99824.06
2022-11-29T11:38:54.084Z,99829.50
2022-11-29T11:41:23.863Z,99829.16
2022-11-29T11:43:52.763Z,99835.91
2022-11-29T11:46:19.845Z,99833.16
2022-11-29T11:48:47.089Z,99829.75
2022-11-29T11:51:20.030Z,99828.91
2022-11-29T11:53:52.429Z,99835.69
2022-11-29T11:56:19.303Z,99836.16
2022-11-29T11:58:49.093Z,99842.91
2022-11-29T12:01:23.119Z,99846.28
2022-11-29T12:03:52.661Z,99853.75
2022-11-29T12:06:31.664Z,99844.22
2022-11-29T12:09:17.319Z,99839.59
2022-11-29T12:11:47.228Z,99844.84
2022-11-29T12:14:23.932Z,99844.75
2022-11-29T12:16:54.441Z,99844.72
2022-11-29T12:19:31.318Z,99855.19
2022-11-29T12:22:02.868Z,99851.94
2022-11-29T12:24:33.079Z,99863.16
2022-11-29T12:27:02.981Z,99864.56
2022-11-29T12:29:31.744Z,99858.44
2022-11-29T12:31:58.487Z,99856.28
2022-11-29T12:34:33.482Z,99861.88
2022-11-29T12:37:19.166Z,99862.53
2022-11-29T12:39:54.947Z,99863.56
2022-11-29T12:42:27.857Z,99857.78
2022-11-29T12:45:00.757Z,99863.78
2022-11-29T12:47:50.311Z,99861.72
2022-11-29T12:50:21.560Z,99861.63
2022-11-29T12:53:00.675Z,99863.00
2022-11-29T12:55:47.758Z,99863.31
2022-11-29T12:58:25.282Z,99863.53
2022-11-29T13:01:02.820Z,99869.00
2022-11-29T13:03:38.507Z,99867.97
2022-11-29T13:06:14.424Z,99864.25
2022-11-29T13:08:44.307Z,99866.25
2022-11-29T13:11:17.321Z,99862.50
2022-11-29T13:14:34.531Z,99862.09
2022-11-29T13:17:34.715Z,99863.16
2022-11-29T13:20:15.434Z,99867.94
2022-11-29T13:22:53.766Z,99861.94
2022-11-29T13:25:25.748Z,99859.78
2022-11-29T13:28:04.806Z,99864.50
2022-11-29T13:30:33.524Z,99864.03
2022-11-29T13:33:00.282Z,99863.47
2022-11-29T13:35:36.046Z,99868.59
2022-11-29T13:38:07.899Z,99872.03
2022-11-29T13:40:44.718Z,99868.50
2022-11-29T13:43:17.267Z,99867.00
2022-11-29T13:45:50.184Z,99870.94
2022-11-29T13:48:27.637Z,99870.59
2022-11-29T13:50:58.091Z,99876.38
2022-11-29T13:53:48.257Z,99866.69
2022-11-29T13:56:26.942Z,99877.56
2022-11-29T13:58:53.962Z,99871.63
2022-11-29T14:01:20.862Z,99880.47
2022-11-29T14:04:00.514Z,99883.72
2022-11-29T14:06:35.260Z,99884.88
2022-11-29T14:09:19.299Z,99894.06
2022-11-29T14:11:46.539Z,99884.03
2022-11-29T14:14:16.050Z,99885.69
2022-11-29T14:16:42.793Z,99897.25
2022-11-29T14:19:10.558Z,99885.69
2022-11-29T14:21:56.182Z,99890.91
2022-11-29T14:24:32.207Z,99892.63
2022-11-29T14:27:08.266Z,99895.56
2022-11-29T14:29:47.387Z,99897.88
2022-11-29T14:32:33.105Z,99905.03
2022-11-29T14:35:11.914Z,99898.59
2022-11-29T14:37:51.070Z,99890.44
2022-11-29T14:40:23.031Z,99900.13
2022-11-29T14:42:50.020Z,99902.69
2022-11-29T14:45:25.074Z,99903.72
2022-11-29T14:47:51.977Z,99906.91
2022-11-29T14:50:39.285Z,99906.44
2022-11-29T14:53:07.311Z,99908.94
2022-11-29T14:55:37.548Z,99913.03
2022-11-29T14:58:14.721Z,99906.53
2022-11-29T15:00:41.544Z,99916.34
2022-11-29T15:03:27.138Z,99912.88
2022-11-29T15:06:00.182Z,99916.44
2022-11-29T15:08:26.972Z,99914.38
2022-11-29T15:11:03.180Z,99916.88
2022-11-29T15:13:31.392Z,99927.56
2022-11-29T15:16:16.642Z,99923.63
2022-11-29T15:18:54.565Z,99924.41
2022-11-29T15:21:46.463Z,99923.72
2022-11-29T15:24:14.700Z,99923.34
2022-11-29T15:26:54.734Z,99930.94
2022-11-29T15:29:21.549Z,99922.25
2022-11-29T15:31:55.768Z,99922.56
2022-11-29T15:34:28.602Z,99924.88
2022-11-29T15:36:55.418Z,99931.19
2022-11-29T15:39:26.854Z,99932.66
2022-11-29T15:41:59.084Z,99932.50
2022-11-29T15:44:25.879Z,99943.81
2022-11-29T15:46:52.728Z,99943.44
2022-11-29T15:49:26.754Z,99944.75
2022-11-29T15:51:58.091Z,99946.06
2022-11-29T15:54:29.679Z,99957.78
2022-11-29T15:57:00.324Z,99963.66
2022-11-29T15:59:32.998Z,99964.81
2022-11-29T16:02:02.307Z,99968.25
2022-11-29T16:04:29.303Z,99966.38
2022-11-29T16:06:56.730Z,99968.69
2022-11-29T16:09:34.303Z,99968.69
2022-11-29T16:12:01.757Z,99972.97
2022-11-29T16:14:29.023Z,99971.25
2022-11-29T16:16:57.843Z,99974.13
2022-11-29T16:19:26.245Z,99971.31
2022-11-29T16:21:59.200Z,99975.19
2022-11-29T16:24:26.277Z,99976.34
2022-11-29T16:26:53.460Z,99978.19
2022-11-29T16:29:26.565Z,99973.78
2022-11-29T16:31:53.595Z,99974.47
2022-11-29T16:34:20.380Z,99977.13
2022-11-29T16:37:00.812Z,99991.38
2022-11-29T16:39:28.200Z,99984.94
2022-11-29T16:42:13.644Z,99986.47
2022-11-29T16:44:40.395Z,99994.63
2022-11-29T16:47:23.493Z,99992.06
2022-11-29T16:50:02.227Z,99983.91
2022-11-29T16:52:30.665Z,99999.50
2022-11-29T16:54:57.484Z,99990.22
2022-11-29T16:57:24.816Z,99984.63
2022-11-29T16:59:57.884Z,99994.75
2022-11-29T17:02:28.038Z,99993.38
2022-11-29T17:04:54.904Z,99989.50
2022-11-29T17:07:32.686Z,99991.50
2022-11-29T17:09:59.777Z,99994.50
2022-11-29T17:12:26.586Z,99996.41
2022-11-29T17:14:53.355Z,99994.50
2022-11-29T17:17:20.147Z,99995.66
2022-11-29T17:19:47.053Z,100004.97
2022-11-29T17:22:15.376Z,100009.38
2022-11-29T17:24:47.449Z,100004.53
2022-11-29T17:27:15.188Z,100011.50
2022-11-29T17:29:42.011Z,100014.75
2022-11-29T17:32:11.779Z,100014.38
2022-11-29T17:34:38.577Z,100023.03
2022-11-29T17:37:05.542Z,100020.91
2022-11-29T17:39:42.266Z,100013.75
2022-11-29T17:42:31.754Z,100014.06
2022-11-29T17:44:58.638Z,100016.19
2022-11-29T17:47:25.410Z,100013.31
2022-11-29T17:49:58.428Z,100014.88
2022-11-29T17:52:25.211Z,100021.31
2022-11-29T17:54:51.975Z,100016.19
2022-11-29T17:57:18.764Z,100011.22
2022-11-29T17:59:45.733Z,100017.63
2022-11-29T18:02:12.721Z,100018.34
2022-11-29T18:04:39.591Z,100021.06
2022-11-29T18:07:06.392Z,100021.34
2022-11-29T18:09:33.192Z,100022.50
2022-11-29T18:11:59.952Z,100020.34
2022-11-29T18:14:26.726Z,100027.63
2022-11-29T18:16:53.605Z,100031.91
2022-11-29T18:19:21.450Z,100028.19
2022-11-29T18:21:49.739Z,100029.47
2022-11-29T18:24:17.080Z,100028.94
2022-11-29T18:26:44.113Z,100029.22
2022-11-29T18:29:11.129Z,100031.66
2022-11-29T18:31:39.299Z,100028.53
2022-11-29T18:34:07.331Z,100026.81
2022-11-29T18:36:35.392Z,100032.09
2022-11-29T18:39:03.949Z,100038.38
2022-11-29T18:41:30.846Z,100034.94
2022-11-29T18:44:14.258Z,100042.25
2022-11-29T18:46:41.856Z,100040.22
2022-11-29T18:49:10.077Z,100040.94
2022-11-29T18:51:39.868Z,100042.78
2022-11-29T18:54:06.682Z,100043.22
2022-11-29T18:56:34.317Z,100045.78
2022-11-29T18:59:02.659Z,100046.13
2022-11-29T19:01:31.292Z,100055.38
2022-11-29T19:03:59.163Z,100051.53
2022-11-29T19:06:32.951Z,100052.38
2022-11-29T19:09:05.864Z,100051.97
2022-11-29T19:11:33.247Z,100051.44
2022-11-29T19:14:01.502Z,100055.84
2022-11-29T19:16:29.632Z,100058.25
2022-11-29T19:18:57.554Z,100063.50
2022-11-29T19:21:25.680Z,100064.22
2022-11-29T19:23:53.925Z,100065.94
2022-11-29T19:26:21.471Z,100065.09
2022-11-29T19:28:48.661Z,100064.22
2022-11-29T19:31:16.520Z,100065.94
2022-11-29T19:33:43.947Z,100071.94
2022-11-29T19:36:10.734Z,100067.50
2022-11-29T19:38:38.011Z,100062.94
2022-11-29T19:41:11.698Z,100068.22
2022-11-29T19:43:38.968Z,100057.06
2022-11-29T19:46:06.864Z,100056.22
2022-11-29T19:48:33.657Z,100067.19
2022-11-29T19:51:00.696Z,100063.94
2022-11-29T19:53:27.534Z,100064.63
2022-11-29T19:55:54.429Z,100062.66
2022-11-29T19:58:22.084Z,100061.63
2022-11-29T20:00:48.891Z,100070.78
2022-11-29T20:03:15.770Z,100067.19
2022-11-29T20:05:42.633Z,100072.63
2022-11-29T20:08:09.491Z,100071.75
2022-11-29T20:10:36.474Z,100062.50
2022-11-29T20:13:03.291Z,100066.91
2022-11-29T20:15:30.833Z,100059.78
2022-11-29T20:17:57.730Z,100070.34
2022-11-29T20:20:24.577Z,100073.06
2022-11-29T20:22:52.009Z,100072.06
2022-11-29T20:25:19.843Z,100069.38
2022-11-29T20:27:46.667Z,100068.09
2022-11-29T20:30:13.866Z,100077.38
2022-11-29T20:32:40.711Z,100073.53
2022-11-29T20:35:08.919Z,100081.38
2022-11-29T20:37:49.636Z,100092.25
2022-11-29T20:40:20.068Z,100095.78
2022-11-29T20:43:06.502Z,100104.94
2022-11-29T20:45:33.488Z,100102.81
2022-11-29T20:48:10.567Z,100103.91
2022-11-29T20:50:37.771Z,100102.81
2022-11-29T20:53:23.196Z,100113.19
2022-11-29T20:55:50.020Z,100105.78
2022-11-29T20:58:20.594Z,100106.31
2022-11-29T21:00:47.768Z,100112.03
2022-11-29T21:03:15.151Z,100108.16
2022-11-29T21:05:42.215Z,100106.31
2022-11-29T21:08:09.130Z,100115.63
2022-11-29T21:10:36.121Z,100108.91
2022-11-29T21:13:05.461Z,100113.44
2022-11-29T21:15:32.475Z,100106.47
2022-11-29T21:17:59.433Z,100104.31
2022-11-29T21:20:28.779Z,100108.03
2022-11-29T21:23:00.546Z,100106.88
2022-11-29T21:25:42.947Z,100106.72
2022-11-29T21:28:14.016Z,100102.75
2022-11-29T21:30:41.861Z,100112.44
2022-11-29T21:33:09.035Z,100107.75
2022-11-29T21:35:36.732Z,100110.31
2022-11-29T21:38:03.616Z,100119.72
2022-11-29T21:40:31.749Z,100117.16
2022-11-29T21:42:58.550Z,100118.16
2022-11-29T21:45:25.344Z,100113.72
2022-11-29T21:47:52.109Z,100113.72
2022-11-29T21:50:18.943Z,100115.28
2022-11-29T21:52:45.743Z,100104.44
2022-11-29T21:55:12.656Z,100109.16
2022-11-29T21:57:39.537Z,100105.56
2022-11-29T22:00:06.737Z,100101.03
2022-11-29T22:02:33.579Z,100102.19
2022-11-29T22:05:00.454Z,100114.59
2022-11-29T22:07:28.394Z,100113.56
2022-11-29T22:09:55.276Z,100102.72
2022-11-29T22:12:34.089Z,100110.44
2022-11-29T22:15:01.748Z,100102.56
2022-11-29T22:17:28.555Z,100103.88
2022-11-29T22:19:55.330Z,100105.19
2022-11-29T22:22:22.129Z,100106.72
2022-11-29T22:24:49.223Z,100110.31
2022-11-29T22:27:16.219Z,100107.88
2022-11-29T22:29:43.058Z,100115.28
2022-11-29T22:32:10.856Z,100115.13
2022-11-29T22:34:37.709Z,100119.41
2022-11-29T22:37:05.704Z,100124.00
2022-11-29T22:39:32.579Z,100133.28
2022-11-29T22:41:59.415Z,100126.59
2022-11-29T22:44:26.211Z,100126.31
2022-11-29T22:46:53.100Z,100128.16
2022-11-29T22:49:20.099Z,100130.56
2022-11-29T22:51:46.935Z,100131.41
2022-11-29T22:54:13.762Z,100142.66
2022-11-29T22:56:41.371Z,100143.25
2022-11-29T22:59:08.634Z,100135.78
2022-11-29T23:01:36.477Z,100136.53
2022-11-29T23:04:05.504Z,100130.94
2022-11-29T23:06:33.815Z,100127.38
2022-11-29T23:09:04.800Z,100130.94
2022-11-29T23:11:31.700Z,100139.81
2022-11-29T23:14:00.323Z,100135.81
2022-11-29T23:16:28.278Z,100137.16
2022-11-29T23:18:56.044Z,100139.28
2022-11-29T23:21:24.204Z,100137.44
2022-11-29T23:23:56.122Z,100139.41
2022-11-29T23:26:27.591Z,100136.56
2022-11-29T23:28:54.464Z,100143.00
2022-11-29T23:31:23.356Z,100145.00
2022-11-29T23:33:50.675Z,100140.56
2022-11-29T23:36:17.570Z,100141.28
2022-11-29T23:38:44.708Z,100138.00
2022-11-29T23:41:11.638Z,100141.28
2022-11-29T23:43:39.616Z,100141.28
2022-11-29T23:46:12.517Z,100139.75
2022-11-29T23:48:39.354Z,100140.72
2022-11-29T23:51:06.269Z,100135.44
2022-11-29T23:53:33.060Z,100138.00
2022-11-29T23:56:00.766Z,100135.75
2022-11-29T23:58:28.504Z,100132.91
